createdAt,value
2018-06-20T00:00:04.128Z,101946.14
2018-06-20T00:01:09.720Z,101948.21
2018-06-20T00:02:15.375Z,101945.95
2018-06-20T00:03:20.889Z,101943.61
2018-06-20T00:04:26.448Z,101947.56
2018-06-20T00:05:31.965Z,101943.36
2018-06-20T00:06:40.525Z,101939.82
2018-06-20T00:07:46.166Z,101942.25
2018-06-20T00:08:53.345Z,101936.14
2018-06-20T00:09:58.872Z,101945.09
2018-06-20T00:11:04.413Z,101935.20
2018-06-20T00:12:09.949Z,101936.04
2018-06-20T00:13:15.779Z,101935.14
2018-06-20T00:14:21.469Z,101928.37
2018-06-20T00:15:27.006Z,101923.38
2018-06-20T00:16:32.645Z,101924.28
2018-06-20T00:17:38.292Z,101923.91
2018-06-20T00:18:43.870Z,101921.25
2018-06-20T00:19:49.434Z,101924.28
2018-06-20T00:20:54.969Z,101926.64
2018-06-20T00:22:00.546Z,101936.17
2018-06-20T00:23:06.157Z,101934.63
2018-06-20T00:24:11.691Z,101935.20
2018-06-20T00:25:17.445Z,101930.34
2018-06-20T00:26:23.026Z,101924.16
2018-06-20T00:27:28.633Z,101926.88
2018-06-20T00:28:34.141Z,101925.98
2018-06-20T00:29:39.718Z,101920.53
2018-06-20T00:30:45.305Z,101920.84
2018-06-20T00:31:50.895Z,101922.78
2018-06-20T00:32:56.413Z,101924.15
2018-06-20T00:34:01.954Z,101922.78
2018-06-20T00:35:07.498Z,101914.40
2018-06-20T00:36:13.054Z,101917.25
2018-06-20T00:37:18.625Z,101913.04
2018-06-20T00:38:24.168Z,101916.94
2018-06-20T00:39:29.680Z,101911.92
2018-06-20T00:40:35.231Z,101911.02
2018-06-20T00:41:40.827Z,101912.08
2018-06-20T00:42:46.318Z,101911.30
2018-06-20T00:43:51.783Z,101912.66
2018-06-20T00:44:57.197Z,101914.73
2018-06-20T00:46:02.625Z,101911.87
2018-06-20T00:47:08.077Z,101913.11
2018-06-20T00:48:13.497Z,101914.47
2018-06-20T00:49:19.260Z,101918.54
2018-06-20T00:50:24.721Z,101912.56
2018-06-20T00:51:30.158Z,101907.95
2018-06-20T00:52:35.595Z,101907.95
2018-06-20T00:53:41.010Z,101905.41
2018-06-20T00:54:46.482Z,101903.34
2018-06-20T00:56:08.768Z,101906.58
2018-06-20T00:57:14.277Z,101907.81
2018-06-20T00:58:19.740Z,101906.58
2018-06-20T00:59:25.174Z,101900.97
2018-06-20T01:00:30.762Z,101905.91
2018-06-20T01:01:36.285Z,101903.00
2018-06-20T01:02:41.702Z,101898.48
2018-06-20T01:03:47.473Z,101897.05
2018-06-20T01:04:52.895Z,101891.96
2018-06-20T01:05:58.369Z,101897.27
2018-06-20T01:07:03.814Z,101893.26
2018-06-20T01:08:09.245Z,101897.21
2018-06-20T01:09:14.669Z,101896.40
2018-06-20T01:10:20.154Z,101894.84
2018-06-20T01:11:26.129Z,101894.84
2018-06-20T01:12:31.554Z,101889.59
2018-06-20T01:13:36.989Z,101893.59
2018-06-20T01:14:42.425Z,101885.80
2018-06-20T01:15:47.881Z,101891.11
2018-06-20T01:16:53.381Z,101888.08
2018-06-20T01:17:58.861Z,101893.33
2018-06-20T01:19:04.337Z,101890.13
2018-06-20T01:20:09.754Z,101886.74
2018-06-20T01:21:15.473Z,101890.69
2018-06-20T01:22:20.875Z,101897.33
2018-06-20T01:23:26.336Z,101889.91
2018-06-20T01:24:31.792Z,101889.45
2018-06-20T01:25:37.202Z,101893.08
2018-06-20T01:26:42.802Z,101886.53
2018-06-20T01:27:48.209Z,101887.05
2018-06-20T01:28:53.675Z,101885.40
2018-06-20T01:29:59.136Z,101887.11
2018-06-20T01:31:04.544Z,101888.92
2018-06-20T01:32:09.984Z,101885.48
2018-06-20T01:33:15.416Z,101886.11
2018-06-20T01:34:20.812Z,101888.30
2018-06-20T01:35:26.294Z,101885.33
2018-06-20T01:36:31.783Z,101886.22
2018-06-20T01:37:37.188Z,101883.63
2018-06-20T01:38:42.618Z,101880.24
2018-06-20T01:39:48.018Z,101878.27
2018-06-20T01:40:53.421Z,101874.95
2018-06-20T01:41:58.860Z,101878.38
2018-06-20T01:43:04.384Z,101878.16
2018-06-20T01:44:09.905Z,101878.00
2018-06-20T01:45:15.432Z,101883.19
2018-06-20T01:46:20.846Z,101876.38
2018-06-20T01:47:26.462Z,101874.52
2018-06-20T01:48:32.040Z,101875.86
2018-06-20T01:49:37.474Z,101876.84
2018-06-20T01:50:43.046Z,101880.48
2018-06-20T01:51:48.448Z,101880.56
2018-06-20T01:52:53.894Z,101880.38
2018-06-20T01:53:59.380Z,101878.75
2018-06-20T01:55:05.341Z,101877.41
2018-06-20T01:56:10.783Z,101878.70
2018-06-20T01:57:16.200Z,101880.00
2018-06-20T01:58:22.388Z,101874.45
2018-06-20T01:59:28.041Z,101879.27
2018-06-20T02:00:33.609Z,101880.62
2018-06-20T02:01:39.027Z,101877.67
2018-06-20T02:02:44.443Z,101873.97
2018-06-20T02:03:49.849Z,101871.38
2018-06-20T02:04:55.298Z,101870.64
2018-06-20T02:06:00.798Z,101875.04
2018-06-20T02:07:06.228Z,101875.14
2018-06-20T02:08:11.656Z,101869.14
2018-06-20T02:09:17.164Z,101873.97
2018-06-20T02:10:22.621Z,101874.83
2018-06-20T02:11:30.304Z,101877.20
2018-06-20T02:12:35.702Z,101873.56
2018-06-20T02:13:41.136Z,101874.08
2018-06-20T02:14:46.553Z,101875.50
2018-06-20T02:15:51.988Z,101875.55
2018-06-20T02:16:57.454Z,101877.41
2018-06-20T02:18:02.858Z,101873.20
2018-06-20T02:19:08.448Z,101871.17
2018-06-20T02:20:13.881Z,101873.03
2018-06-20T02:21:19.590Z,101867.56
2018-06-20T02:22:25.017Z,101867.92
2018-06-20T02:23:30.452Z,101866.63
2018-06-20T02:24:35.865Z,101862.51
2018-06-20T02:25:41.285Z,101868.58
2018-06-20T02:26:46.713Z,101865.52
2018-06-20T02:27:52.156Z,101865.66
2018-06-20T02:28:57.634Z,101869.46
2018-06-20T02:30:03.503Z,101870.33
2018-06-20T02:31:09.186Z,101872.42
2018-06-20T02:32:14.582Z,101870.02
2018-06-20T02:33:20.024Z,101868.95
2018-06-20T02:34:25.474Z,101864.31
2018-06-20T02:35:30.989Z,101867.87
2018-06-20T02:36:36.496Z,101867.75
2018-06-20T02:37:41.930Z,101863.48
2018-06-20T02:38:47.341Z,101862.78
2018-06-20T02:39:52.749Z,101861.08
2018-06-20T02:40:58.262Z,101864.59
2018-06-20T02:42:03.739Z,101863.84
2018-06-20T02:43:09.197Z,101863.01
2018-06-20T02:44:14.653Z,101858.25
2018-06-20T02:45:20.142Z,101857.55
2018-06-20T02:46:25.613Z,101868.97
2018-06-20T02:47:36.001Z,101860.13
2018-06-20T02:48:41.549Z,101858.83
2018-06-20T02:49:46.964Z,101857.25
2018-06-20T02:50:52.361Z,101860.77
2018-06-20T02:51:57.789Z,101855.59
2018-06-20T02:53:03.223Z,101858.36
2018-06-20T02:54:08.684Z,101855.40
2018-06-20T02:55:13.896Z,101859.78
2018-06-20T02:56:19.248Z,101853.77
2018-06-20T02:57:24.673Z,101852.02
2018-06-20T02:58:30.093Z,101860.58
2018-06-20T02:59:35.582Z,101855.02
2018-06-20T03:00:41.038Z,101854.06
2018-06-20T03:01:46.445Z,101856.22
2018-06-20T03:02:52.160Z,101855.91
2018-06-20T03:03:58.177Z,101852.34
2018-06-20T03:05:03.773Z,101849.16
2018-06-20T03:06:09.246Z,101856.87
2018-06-20T03:07:14.648Z,101852.58
2018-06-20T03:08:20.090Z,101853.42
2018-06-20T03:09:30.525Z,101851.20
2018-06-20T03:10:36.043Z,101852.49
2018-06-20T03:11:42.085Z,101848.66
2018-06-20T03:12:47.584Z,101849.06
2018-06-20T03:13:53.007Z,101845.65
2018-06-20T03:14:58.454Z,101848.23
2018-06-20T03:16:03.854Z,101845.97
2018-06-20T03:17:09.329Z,101848.10
2018-06-20T03:18:14.821Z,101849.90
2018-06-20T03:19:20.244Z,101847.31
2018-06-20T03:20:25.648Z,101860.08
2018-06-20T03:21:31.062Z,101851.61
2018-06-20T03:22:36.498Z,101852.49
2018-06-20T03:23:41.954Z,101846.80
2018-06-20T03:24:47.522Z,101853.78
2018-06-20T03:25:52.973Z,101846.98
2018-06-20T03:26:58.391Z,101841.90
2018-06-20T03:28:03.817Z,101842.69
2018-06-20T03:29:09.260Z,101842.64
2018-06-20T03:30:14.761Z,101843.98
2018-06-20T03:31:20.201Z,101842.31
2018-06-20T03:32:25.622Z,101846.70
2018-06-20T03:33:31.203Z,101841.02
2018-06-20T03:34:36.634Z,101842.81
2018-06-20T03:35:42.096Z,101844.95
2018-06-20T03:36:47.519Z,101838.14
2018-06-20T03:37:52.940Z,101835.91
2018-06-20T03:38:58.349Z,101843.55
2018-06-20T03:40:03.819Z,101839.23
2018-06-20T03:41:09.216Z,101840.53
2018-06-20T03:42:14.680Z,101843.96
2018-06-20T03:43:20.132Z,101842.33
2018-06-20T03:44:25.749Z,101834.56
2018-06-20T03:45:31.201Z,101837.20
2018-06-20T03:46:36.857Z,101831.52
2018-06-20T03:47:42.421Z,101830.92
2018-06-20T03:48:47.952Z,101835.42
2018-06-20T03:49:53.425Z,101841.77
2018-06-20T03:50:58.824Z,101839.63
2018-06-20T03:52:04.233Z,101839.59
2018-06-20T03:53:09.636Z,101837.45
2018-06-20T03:54:15.056Z,101843.00
2018-06-20T03:55:20.521Z,101846.72
2018-06-20T03:56:25.938Z,101840.48
2018-06-20T03:57:31.461Z,101846.02
2018-06-20T03:58:36.856Z,101836.41
2018-06-20T03:59:42.307Z,101840.11
2018-06-20T04:00:47.732Z,101836.59
2018-06-20T04:01:53.145Z,101840.20
2018-06-20T04:02:58.660Z,101840.95
2018-06-20T04:04:04.105Z,101840.34
2018-06-20T04:05:09.502Z,101838.48
2018-06-20T04:06:14.957Z,101838.31
2018-06-20T04:07:20.426Z,101842.09
2018-06-20T04:08:25.867Z,101845.42
2018-06-20T04:09:31.311Z,101840.14
2018-06-20T04:10:36.733Z,101838.77
2018-06-20T04:11:42.847Z,101843.34
2018-06-20T04:12:48.306Z,101844.13
2018-06-20T04:13:53.693Z,101847.36
2018-06-20T04:14:59.255Z,101842.95
2018-06-20T04:16:04.781Z,101844.94
2018-06-20T04:17:10.299Z,101840.53
2018-06-20T04:18:15.809Z,101847.29
2018-06-20T04:19:21.250Z,101843.81
2018-06-20T04:20:26.930Z,101846.30
2018-06-20T04:21:32.478Z,101844.80
2018-06-20T04:22:37.869Z,101845.02
2018-06-20T04:23:43.314Z,101848.23
2018-06-20T04:24:48.767Z,101847.27
2018-06-20T04:25:54.208Z,101845.80
2018-06-20T04:26:59.736Z,101850.02
2018-06-20T04:28:05.216Z,101845.19
2018-06-20T04:29:10.711Z,101850.23
2018-06-20T04:30:16.302Z,101848.52
2018-06-20T04:31:21.754Z,101841.16
2018-06-20T04:32:27.152Z,101846.43
2018-06-20T04:33:32.822Z,101848.94
2018-06-20T04:34:38.274Z,101849.75
2018-06-20T04:35:43.702Z,101848.52
2018-06-20T04:36:49.227Z,101842.28
2018-06-20T04:37:54.653Z,101850.34
2018-06-20T04:39:00.103Z,101844.47
2018-06-20T04:40:05.661Z,101849.03
2018-06-20T04:41:11.118Z,101848.31
2018-06-20T04:42:16.624Z,101844.05
2018-06-20T04:43:22.041Z,101842.50
2018-06-20T04:44:27.507Z,101845.28
2018-06-20T04:45:32.949Z,101840.94
2018-06-20T04:46:38.397Z,101843.55
2018-06-20T04:47:43.857Z,101842.77
2018-06-20T04:48:49.274Z,101841.08
2018-06-20T04:49:54.933Z,101843.34
2018-06-20T04:51:00.433Z,101832.86
2018-06-20T04:52:05.917Z,101834.67
2018-06-20T04:53:11.336Z,101842.17
2018-06-20T04:54:16.616Z,101837.24
2018-06-20T04:55:21.925Z,101840.42
2018-06-20T04:56:27.626Z,101837.64
2018-06-20T04:57:33.137Z,101838.46
2018-06-20T04:58:38.565Z,101838.57
2018-06-20T04:59:44.188Z,101840.81
2018-06-20T05:00:49.633Z,101839.73
2018-06-20T05:01:55.212Z,101837.90
2018-06-20T05:03:00.852Z,101840.44
2018-06-20T05:04:06.291Z,101838.69
2018-06-20T05:05:12.064Z,101835.97
2018-06-20T05:06:17.457Z,101843.19
2018-06-20T05:07:22.856Z,101841.38
2018-06-20T05:08:28.335Z,101839.59
2018-06-20T05:09:33.794Z,101841.38
2018-06-20T05:10:39.438Z,101836.38
2018-06-20T05:11:45.043Z,101844.73
2018-06-20T05:12:50.566Z,101845.50
2018-06-20T05:13:56.000Z,101843.33
2018-06-20T05:15:01.454Z,101841.66
2018-06-20T05:16:06.889Z,101837.67
2018-06-20T05:17:12.337Z,101840.20
2018-06-20T05:18:17.750Z,101840.88
2018-06-20T05:19:23.219Z,101836.11
2018-06-20T05:20:28.669Z,101834.55
2018-06-20T05:21:33.964Z,101829.12
2018-06-20T05:22:43.712Z,101836.26
2018-06-20T05:23:49.153Z,101827.14
2018-06-20T05:24:55.719Z,101834.71
2018-06-20T05:26:02.320Z,101833.74
2018-06-20T05:27:07.814Z,101828.83
2018-06-20T05:28:14.593Z,101833.67
2018-06-20T05:29:20.014Z,101840.25
2018-06-20T05:30:25.528Z,101831.50
2018-06-20T05:31:30.928Z,101830.83
2018-06-20T05:32:36.383Z,101830.89
2018-06-20T05:33:41.820Z,101832.05
2018-06-20T05:34:47.288Z,101831.98
2018-06-20T05:35:52.742Z,101831.59
2018-06-20T05:36:58.272Z,101830.69
2018-06-20T05:38:03.770Z,101832.14
2018-06-20T05:39:11.183Z,101834.20
2018-06-20T05:40:16.719Z,101832.30
2018-06-20T05:41:22.329Z,101835.36
2018-06-20T05:42:27.807Z,101835.44
2018-06-20T05:43:33.208Z,101832.98
2018-06-20T05:44:39.077Z,101830.70
2018-06-20T05:45:44.629Z,101830.92
2018-06-20T05:46:50.354Z,101835.52
2018-06-20T05:47:55.757Z,101834.77
2018-06-20T05:49:01.229Z,101839.98
2018-06-20T05:50:06.733Z,101835.28
2018-06-20T05:51:12.257Z,101837.20
2018-06-20T05:52:17.945Z,101834.92
2018-06-20T05:53:23.378Z,101830.55
2018-06-20T05:54:28.897Z,101833.37
2018-06-20T05:55:34.329Z,101838.36
2018-06-20T05:56:39.777Z,101836.08
2018-06-20T05:57:45.222Z,101835.29
2018-06-20T05:58:50.665Z,101836.84
2018-06-20T05:59:56.102Z,101834.23
2018-06-20T06:01:01.547Z,101833.01
2018-06-20T06:02:07.059Z,101838.30
2018-06-20T06:03:12.558Z,101830.25
2018-06-20T06:04:17.983Z,101830.33
2018-06-20T06:05:23.667Z,101832.14
2018-06-20T06:06:29.087Z,101831.16
2018-06-20T06:07:34.628Z,101835.61
2018-06-20T06:08:40.725Z,101839.75
2018-06-20T06:09:46.194Z,101836.52
2018-06-20T06:10:51.617Z,101835.22
2018-06-20T06:11:57.097Z,101840.36
2018-06-20T06:13:02.508Z,101833.55
2018-06-20T06:14:08.009Z,101834.06
2018-06-20T06:15:13.572Z,101832.79
2018-06-20T06:16:18.993Z,101835.69
2018-06-20T06:17:24.413Z,101831.23
2018-06-20T06:18:29.811Z,101839.52
2018-06-20T06:19:35.283Z,101834.28
2018-06-20T06:20:40.719Z,101837.33
2018-06-20T06:21:46.157Z,101838.06
2018-06-20T06:22:51.581Z,101831.60
2018-06-20T06:23:57.052Z,101833.04
2018-06-20T06:25:02.675Z,101830.36
2018-06-20T06:26:08.054Z,101833.27
2018-06-20T06:27:13.661Z,101837.88
2018-06-20T06:28:19.056Z,101827.58
2018-06-20T06:29:24.453Z,101834.15
2018-06-20T06:30:29.920Z,101834.44
2018-06-20T06:31:35.056Z,101832.51
2018-06-20T06:32:40.500Z,101830.25
2018-06-20T06:33:46.055Z,101825.58
2018-06-20T06:34:51.497Z,101828.92
2018-06-20T06:35:56.935Z,101831.74
2018-06-20T06:37:02.373Z,101835.34
2018-06-20T06:38:07.787Z,101828.20
2018-06-20T06:39:13.553Z,101832.09
2018-06-20T06:40:19.002Z,101838.48
2018-06-20T06:41:24.469Z,101835.84
2018-06-20T06:42:29.912Z,101832.84
2018-06-20T06:43:35.344Z,101839.50
2018-06-20T06:44:41.273Z,101837.65
2018-06-20T06:45:46.861Z,101834.48
2018-06-20T06:46:52.264Z,101840.03
2018-06-20T06:47:57.898Z,101827.36
2018-06-20T06:49:03.369Z,101832.64
2018-06-20T06:50:08.980Z,101833.37
2018-06-20T06:51:14.269Z,101837.48
2018-06-20T06:52:19.918Z,101836.02
2018-06-20T06:53:25.349Z,101839.83
2018-06-20T06:54:30.802Z,101835.16
2018-06-20T06:55:36.226Z,101834.97
2018-06-20T06:56:41.685Z,101835.80
2018-06-20T06:57:47.288Z,101831.79
2018-06-20T06:58:52.750Z,101832.05
2018-06-20T06:59:58.163Z,101835.67
2018-06-20T07:01:03.723Z,101836.55
2018-06-20T07:02:09.149Z,101832.42
2018-06-20T07:03:14.755Z,101829.66
2018-06-20T07:04:20.194Z,101835.08
2018-06-20T07:05:25.658Z,101834.72
2018-06-20T07:06:31.130Z,101834.08
2018-06-20T07:07:36.670Z,101838.08
2018-06-20T07:08:42.155Z,101836.10
2018-06-20T07:09:47.584Z,101838.52
2018-06-20T07:10:52.878Z,101840.11
2018-06-20T07:11:58.210Z,101833.42
2018-06-20T07:13:03.643Z,101836.46
2018-06-20T07:14:09.540Z,101831.40
2018-06-20T07:15:14.999Z,101830.64
2018-06-20T07:16:20.433Z,101827.03
2018-06-20T07:17:25.888Z,101833.17
2018-06-20T07:18:31.541Z,101825.81
2018-06-20T07:19:37.013Z,101831.62
2018-06-20T07:20:42.492Z,101827.82
2018-06-20T07:21:47.944Z,101831.13
2018-06-20T07:22:53.363Z,101827.46
2018-06-20T07:23:58.545Z,101821.66
2018-06-20T07:25:04.057Z,101822.95
2018-06-20T07:26:09.522Z,101823.23
2018-06-20T07:27:15.079Z,101829.63
2018-06-20T07:28:20.565Z,101831.48
2018-06-20T07:29:26.030Z,101826.89
2018-06-20T07:30:31.496Z,101821.86
2018-06-20T07:31:37.177Z,101823.52
2018-06-20T07:32:42.593Z,101820.39
2018-06-20T07:33:48.007Z,101818.72
2018-06-20T07:34:53.442Z,101817.28
2018-06-20T07:35:59.129Z,101810.80
2018-06-20T07:37:04.405Z,101810.91
2018-06-20T07:38:09.820Z,101815.00
2018-06-20T07:39:15.285Z,101815.88
2018-06-20T07:40:20.710Z,101813.70
2018-06-20T07:41:26.121Z,101815.98
2018-06-20T07:42:31.656Z,101813.37
2018-06-20T07:43:37.057Z,101814.26
2018-06-20T07:44:42.505Z,101823.44
2018-06-20T07:45:47.967Z,101820.64
2018-06-20T07:46:53.559Z,101815.15
2018-06-20T07:47:59.145Z,101810.22
2018-06-20T07:49:04.477Z,101811.05
2018-06-20T07:50:09.890Z,101812.91
2018-06-20T07:51:15.356Z,101815.34
2018-06-20T07:52:21.013Z,101809.16
2018-06-20T07:53:26.424Z,101810.22
2018-06-20T07:54:31.862Z,101807.14
2018-06-20T07:55:37.282Z,101810.51
2018-06-20T07:56:42.750Z,101810.91
2018-06-20T07:57:48.229Z,101811.11
2018-06-20T07:58:58.728Z,101817.75
2018-06-20T08:00:09.350Z,101810.75
2018-06-20T08:01:35.620Z,101812.61
2018-06-20T08:03:03.358Z,101812.95
2018-06-20T08:04:14.217Z,101814.82
2018-06-20T08:05:24.922Z,101816.67
2018-06-20T08:06:35.773Z,101816.03
2018-06-20T08:07:46.485Z,101810.09
2018-06-20T08:08:57.185Z,101814.08
2018-06-20T08:10:07.878Z,101812.72
2018-06-20T08:11:18.448Z,101816.52
2018-06-20T08:12:29.257Z,101813.37
2018-06-20T08:13:39.798Z,101812.36
2018-06-20T08:14:50.476Z,101816.23
2018-06-20T08:16:00.989Z,101816.95
2018-06-20T08:17:10.441Z,101816.98
2018-06-20T08:19:22.729Z,101811.23
2018-06-20T08:20:28.208Z,101820.03
2018-06-20T08:21:33.609Z,101813.52
2018-06-20T08:22:39.050Z,101811.02
2018-06-20T08:23:44.536Z,101810.37
2018-06-20T08:25:07.433Z,101811.04
2018-06-20T08:26:12.893Z,101807.70
2018-06-20T08:27:18.338Z,101810.23
2018-06-20T08:28:23.858Z,101808.48
2018-06-20T08:29:29.318Z,101808.66
2018-06-20T08:30:34.845Z,101806.87
2018-06-20T08:31:40.327Z,101806.39
2018-06-20T08:32:45.903Z,101808.48
2018-06-20T08:33:51.605Z,101814.81
2018-06-20T08:34:57.044Z,101816.59
2018-06-20T08:36:02.490Z,101809.23
2018-06-20T08:37:07.949Z,101810.80
2018-06-20T08:38:13.402Z,101810.23
2018-06-20T08:39:19.086Z,101802.20
2018-06-20T08:40:24.493Z,101807.08
2018-06-20T08:41:29.592Z,101803.98
2018-06-20T08:42:34.962Z,101803.88
2018-06-20T08:43:40.456Z,101800.79
2018-06-20T08:44:45.929Z,101802.00
2018-06-20T08:45:51.350Z,101814.25
2018-06-20T08:46:56.798Z,101807.25
2018-06-20T08:48:02.569Z,101807.61
2018-06-20T08:49:07.990Z,101807.70
2018-06-20T08:50:13.458Z,101798.45
2018-06-20T08:51:18.888Z,101809.22
2018-06-20T08:52:24.978Z,101806.50
2018-06-20T08:53:30.377Z,101809.87
2018-06-20T08:54:36.647Z,101804.89
2018-06-20T08:55:42.229Z,101809.13
2018-06-20T08:56:47.624Z,101808.34
2018-06-20T08:57:53.099Z,101812.41
2018-06-20T08:58:58.557Z,101807.61
2018-06-20T09:00:04.061Z,101806.39
2018-06-20T09:01:09.485Z,101803.68
2018-06-20T09:02:17.777Z,101797.34
2018-06-20T09:03:23.829Z,101800.97
2018-06-20T09:04:34.382Z,101796.56
2018-06-20T09:05:45.223Z,101798.31
2018-06-20T09:07:56.514Z,101798.80
2018-06-20T09:10:10.817Z,101798.88
2018-06-20T09:11:21.434Z,101802.08
2018-06-20T09:12:32.010Z,101796.13
2018-06-20T09:13:41.753Z,101795.02
2018-06-20T09:14:52.390Z,101794.50
2018-06-20T09:16:02.970Z,101793.84
2018-06-20T09:17:21.830Z,101796.40
2018-06-20T09:18:32.520Z,101785.84
2018-06-20T09:19:43.020Z,101796.06
2018-06-20T09:20:48.506Z,101790.20
2018-06-20T09:21:54.160Z,101787.24
2018-06-20T09:22:59.586Z,101773.72
2018-06-20T09:24:04.991Z,101779.50
2018-06-20T09:25:10.974Z,101778.54
2018-06-20T09:26:16.418Z,101778.89
2018-06-20T09:27:22.037Z,101781.41
2018-06-20T09:28:27.465Z,101771.79
2018-06-20T09:29:32.874Z,101777.38
2018-06-20T09:30:38.543Z,101776.61
2018-06-20T09:31:44.050Z,101774.09
2018-06-20T09:32:49.542Z,101775.44
2018-06-20T09:33:55.226Z,101777.48
2018-06-20T09:35:00.614Z,101771.03
2018-06-20T09:36:06.022Z,101769.77
2018-06-20T09:37:11.420Z,101771.30
2018-06-20T09:38:16.889Z,101764.23
2018-06-20T09:39:21.985Z,101764.39
2018-06-20T09:40:27.374Z,101762.53
2018-06-20T09:41:32.783Z,101763.89
2018-06-20T09:42:38.214Z,101759.37
2018-06-20T09:43:43.654Z,101759.27
2018-06-20T09:44:49.256Z,101759.11
2018-06-20T09:45:54.677Z,101757.58
2018-06-20T09:47:00.255Z,101757.89
2018-06-20T09:48:05.764Z,101758.38
2018-06-20T09:49:11.485Z,101755.75
2018-06-20T09:50:22.121Z,101755.20
2018-06-20T09:51:27.735Z,101754.38
2018-06-20T09:52:33.152Z,101757.80
2018-06-20T09:53:38.545Z,101755.76
2018-06-20T09:54:43.995Z,101760.88
2018-06-20T09:55:49.432Z,101764.16
2018-06-20T09:56:55.049Z,101762.25
2018-06-20T09:58:00.506Z,101762.70
2018-06-20T09:59:11.184Z,101758.55
2018-06-20T10:00:21.818Z,101759.83
2018-06-20T10:01:32.382Z,101759.45
2018-06-20T10:02:43.037Z,101757.31
2018-06-20T10:03:53.601Z,101762.89
2018-06-20T10:05:04.285Z,101761.89
2018-06-20T10:06:14.845Z,101759.09
2018-06-20T10:07:29.241Z,101756.64
2018-06-20T10:08:39.944Z,101762.67
2018-06-20T10:09:50.518Z,101754.57
2018-06-20T10:11:01.268Z,101755.25
2018-06-20T10:13:13.859Z,101755.44
2018-06-20T10:14:19.297Z,101754.94
2018-06-20T10:15:24.712Z,101752.42
2018-06-20T10:16:31.564Z,101752.44
2018-06-20T10:17:36.977Z,101756.79
2018-06-20T10:18:42.550Z,101756.48
2018-06-20T10:19:47.976Z,101759.23
2018-06-20T10:20:53.422Z,101760.25
2018-06-20T10:21:58.884Z,101754.58
2018-06-20T10:23:04.354Z,101757.38
2018-06-20T10:24:09.930Z,101758.16
2018-06-20T10:25:15.405Z,101757.12
2018-06-20T10:26:20.801Z,101753.78
2018-06-20T10:27:26.362Z,101745.15
2018-06-20T10:28:32.071Z,101755.10
2018-06-20T10:29:37.518Z,101749.64
2018-06-20T10:30:42.985Z,101744.21
2018-06-20T10:31:48.441Z,101745.11
2018-06-20T10:32:53.567Z,101742.64
2018-06-20T10:33:59.285Z,101744.07
2018-06-20T10:35:04.747Z,101736.05
2018-06-20T10:36:10.202Z,101738.66
2018-06-20T10:37:15.643Z,101739.86
2018-06-20T10:38:21.089Z,101734.73
2018-06-20T10:39:26.340Z,101738.27
2018-06-20T10:40:31.697Z,101734.56
2018-06-20T10:41:39.197Z,101729.55
2018-06-20T10:42:44.656Z,101727.86
2018-06-20T10:43:50.080Z,101731.80
2018-06-20T10:44:59.548Z,101732.22
2018-06-20T10:46:10.235Z,101727.59
2018-06-20T10:47:20.813Z,101725.89
2018-06-20T10:48:26.265Z,101721.80
2018-06-20T10:49:31.746Z,101726.45
2018-06-20T10:50:37.169Z,101729.50
2018-06-20T10:51:43.264Z,101726.28
2018-06-20T10:52:48.869Z,101732.83
2018-06-20T10:53:54.434Z,101730.61
2018-06-20T10:54:59.988Z,101724.84
2018-06-20T10:56:05.787Z,101724.84
2018-06-20T10:57:16.526Z,101724.35
2018-06-20T10:58:27.268Z,101717.38
2018-06-20T10:59:37.841Z,101718.47
2018-06-20T11:00:48.673Z,101714.45
2018-06-20T11:01:59.221Z,101719.48
2018-06-20T11:03:09.701Z,101714.94
2018-06-20T11:04:20.194Z,101708.58
2018-06-20T11:05:30.881Z,101708.95
2018-06-20T11:07:45.306Z,101710.27
2018-06-20T11:08:56.041Z,101706.05
2018-06-20T11:10:06.803Z,101708.48
2018-06-20T11:11:17.221Z,101705.61
2018-06-20T11:12:27.677Z,101705.95
2018-06-20T11:13:33.084Z,101698.98
2018-06-20T11:14:38.773Z,101698.39
2018-06-20T11:15:45.085Z,101695.98
2018-06-20T11:16:50.518Z,101697.25
2018-06-20T11:17:55.942Z,101691.92
2018-06-20T11:19:01.363Z,101691.61
2018-06-20T11:20:12.058Z,101688.98
2018-06-20T11:21:17.583Z,101695.95
2018-06-20T11:22:23.002Z,101694.37
2018-06-20T11:23:29.111Z,101687.20
2018-06-20T11:24:34.817Z,101683.58
2018-06-20T11:25:40.277Z,101688.92
2018-06-20T11:26:45.725Z,101684.97
2018-06-20T11:27:51.141Z,101681.78
2018-06-20T11:28:56.571Z,101683.59
2018-06-20T11:30:02.063Z,101680.38
2018-06-20T11:31:07.525Z,101685.17
2018-06-20T11:32:12.966Z,101675.86
2018-06-20T11:33:18.517Z,101676.82
2018-06-20T11:34:23.954Z,101679.30
2018-06-20T11:35:29.635Z,101674.66
2018-06-20T11:36:35.088Z,101669.18
2018-06-20T11:37:40.529Z,101672.64
2018-06-20T11:38:45.986Z,101665.95
2018-06-20T11:39:51.397Z,101662.59
2018-06-20T11:40:56.835Z,101656.17
2018-06-20T11:42:02.267Z,101662.00
2018-06-20T11:43:07.857Z,101662.71
2018-06-20T11:44:13.362Z,101661.05
2018-06-20T11:45:18.792Z,101651.45
2018-06-20T11:46:29.278Z,101658.04
2018-06-20T11:47:41.580Z,101654.48
2018-06-20T11:48:47.177Z,101654.59
2018-06-20T11:49:52.647Z,101658.17
2018-06-20T11:50:58.057Z,101654.75
2018-06-20T11:52:07.678Z,101649.27
2018-06-20T11:53:13.110Z,101652.98
2018-06-20T11:54:18.576Z,101651.33
2018-06-20T11:55:29.181Z,101651.21
2018-06-20T11:56:34.596Z,101644.75
2018-06-20T11:57:40.200Z,101647.84
2018-06-20T11:58:50.745Z,101652.50
2018-06-20T12:00:01.180Z,101642.95
2018-06-20T12:01:11.737Z,101643.17
2018-06-20T12:02:22.340Z,101650.73
2018-06-20T12:03:33.021Z,101647.27
2018-06-20T12:04:43.661Z,101643.05
2018-06-20T12:05:54.597Z,101638.16
2018-06-20T12:07:05.198Z,101643.41
2018-06-20T12:08:15.766Z,101642.59
2018-06-20T12:09:26.460Z,101636.73
2018-06-20T12:10:37.201Z,101640.78
2018-06-20T12:12:51.987Z,101634.45
2018-06-20T12:14:02.521Z,101641.52
2018-06-20T12:15:13.300Z,101631.34
2018-06-20T12:16:22.251Z,101631.95
2018-06-20T12:17:32.729Z,101628.94
2018-06-20T12:18:43.264Z,101633.77
2018-06-20T12:19:53.917Z,101628.23
2018-06-20T12:21:04.674Z,101628.44
2018-06-20T12:22:15.417Z,101629.31
2018-06-20T12:23:26.080Z,101630.95
2018-06-20T12:24:36.911Z,101625.48
2018-06-20T12:25:47.393Z,101625.35
2018-06-20T12:26:57.967Z,101621.41
2018-06-20T12:28:08.732Z,101621.30
2018-06-20T12:29:19.430Z,101621.17
2018-06-20T12:30:30.224Z,101616.98
2018-06-20T12:31:41.017Z,101623.92
2018-06-20T12:32:51.597Z,101624.39
2018-06-20T12:34:02.609Z,101617.69
2018-06-20T12:35:13.422Z,101626.18
2018-06-20T12:36:25.110Z,101618.00
2018-06-20T12:37:35.907Z,101614.95
2018-06-20T12:38:46.405Z,101613.88
2018-06-20T12:39:57.762Z,101612.41
2018-06-20T12:42:06.052Z,101608.51
2018-06-20T12:43:16.783Z,101610.17
2018-06-20T12:44:30.366Z,101612.77